createdAt,value
2022-09-23T00:01:14.798Z,41.88
2022-09-23T00:03:45.376Z,129.15
2022-09-23T00:06:18.646Z,89.40
2022-09-23T00:08:46.330Z,54.95
2022-09-23T00:11:16.409Z,54.08
2022-09-23T00:13:45.643Z,56.67
2022-09-23T00:16:15.978Z,57.17
2022-09-23T00:18:43.551Z,48.63
2022-09-23T00:21:13.843Z,47.78
2022-09-23T00:23:42.864Z,54.28
2022-09-23T00:26:12.915Z,52.60
2022-09-23T00:28:40.650Z,49.05
2022-09-23T00:31:14.536Z,47.58
2022-09-23T00:33:42.087Z,43.27
2022-09-23T00:36:12.315Z,39.05
2022-09-23T00:38:39.403Z,41.08
2022-09-23T00:41:06.766Z,45.15
2022-09-23T00:43:46.876Z,46.60
2022-09-23T00:46:43.655Z,46.33
2022-09-23T00:49:15.383Z,42.67
2022-09-23T00:51:49.985Z,73.72
2022-09-23T00:54:18.441Z,62.08
2022-09-23T00:56:45.727Z,43.67
2022-09-23T00:59:13.930Z,42.35
2022-09-23T01:01:42.280Z,42.25
2022-09-23T01:04:09.901Z,39.08
2022-09-23T01:06:37.031Z,35.63
2022-09-23T01:09:04.238Z,34.72
2022-09-23T01:11:45.972Z,34.47
2022-09-23T01:14:45.918Z,38.97
2022-09-23T01:17:41.690Z,33.95
2022-09-23T01:20:14.615Z,34.28
2022-09-23T01:23:09.709Z,29.63
2022-09-23T01:25:50.872Z,75.00
2022-09-23T01:28:45.811Z,69.15
2022-09-23T01:31:51.054Z,43.60
2022-09-23T01:34:35.452Z,35.97
2022-09-23T01:37:24.994Z,35.65
2022-09-23T01:40:07.862Z,33.58
2022-09-23T01:42:57.858Z,29.05
2022-09-23T01:45:34.061Z,24.83
2022-09-23T01:48:21.680Z,17.40
2022-09-23T01:51:03.963Z,13.63
2022-09-23T01:53:52.302Z,18.20
2022-09-23T01:56:41.648Z,18.08
2022-09-23T01:59:18.400Z,15.02
2022-09-23T02:01:54.044Z,15.75
2022-09-23T02:04:26.029Z,16.80
2022-09-23T02:07:01.018Z,20.52
2022-09-23T02:09:34.917Z,17.92
2022-09-23T02:12:08.298Z,15.52
2022-09-23T02:14:55.450Z,20.05
2022-09-23T02:17:31.410Z,20.75
2022-09-23T02:20:04.164Z,19.40
2022-09-23T02:22:40.417Z,16.45
2022-09-23T02:25:09.807Z,20.48
2022-09-23T02:27:47.554Z,15.80
2022-09-23T02:30:20.234Z,14.65
2022-09-23T02:32:59.608Z,11.25
2022-09-23T02:35:34.694Z,11.20
2022-09-23T02:38:20.042Z,10.60
2022-09-23T02:41:07.499Z,11.70
2022-09-23T02:43:45.590Z,13.68
2022-09-23T02:46:13.121Z,10.95
2022-09-23T02:48:46.462Z,11.65
2022-09-23T02:51:13.933Z,14.63
2022-09-23T02:53:41.422Z,12.68
2022-09-23T02:56:20.386Z,12.52
2022-09-23T02:58:54.209Z,17.00
2022-09-23T03:01:46.700Z,11.57
2022-09-23T03:04:25.818Z,12.82
2022-09-23T03:07:06.235Z,13.63
2022-09-23T03:09:35.881Z,13.50
2022-09-23T03:12:34.342Z,13.25
2022-09-23T03:15:25.934Z,11.98
2022-09-23T03:17:58.989Z,13.27
2022-09-23T03:20:46.413Z,15.50
2022-09-23T03:23:15.627Z,14.85
2022-09-23T03:25:47.180Z,14.70
2022-09-23T03:28:17.409Z,12.38
2022-09-23T03:30:45.271Z,13.73
2022-09-23T03:33:15.549Z,11.55
2022-09-23T03:36:15.810Z,17.10
2022-09-23T03:38:45.679Z,13.02
2022-09-23T03:41:17.464Z,12.68
2022-09-23T03:43:45.696Z,12.77
2022-09-23T03:46:15.247Z,12.45
2022-09-23T03:48:42.307Z,14.75
2022-09-23T03:51:24.011Z,14.93
2022-09-23T03:53:51.270Z,15.20
2022-09-23T03:56:19.062Z,15.10
2022-09-23T03:58:46.633Z,11.90
2022-09-23T04:01:14.889Z,12.98
2022-09-23T04:03:42.399Z,16.85
2022-09-23T04:06:10.007Z,18.38
2022-09-23T04:08:37.148Z,14.95
2022-09-23T04:11:05.065Z,13.38
2022-09-23T04:13:32.615Z,29.17
2022-09-23T04:16:00.306Z,19.27
2022-09-23T04:18:27.818Z,19.58
2022-09-23T04:21:01.051Z,16.85
2022-09-23T04:23:28.608Z,18.88
2022-09-23T04:25:56.225Z,19.70
2022-09-23T04:28:23.760Z,29.17
2022-09-23T04:30:51.191Z,24.23
2022-09-23T04:33:18.405Z,36.45
2022-09-23T04:35:53.328Z,37.72
2022-09-23T04:38:20.755Z,31.58
2022-09-23T04:40:49.019Z,31.55
2022-09-23T04:43:16.687Z,35.03
2022-09-23T04:45:45.070Z,34.17
2022-09-23T04:48:13.992Z,33.08
2022-09-23T04:50:41.472Z,28.38
2022-09-23T04:53:09.436Z,24.13
2022-09-23T04:55:36.651Z,20.70
2022-09-23T04:58:03.847Z,22.40
2022-09-23T05:00:31.700Z,27.08
2022-09-23T05:02:59.327Z,15.68
2022-09-23T05:05:28.187Z,22.92
2022-09-23T05:07:56.643Z,19.00
2022-09-23T05:10:24.265Z,19.17
2022-09-23T05:12:54.999Z,19.83
2022-09-23T05:15:24.610Z,23.58
2022-09-23T05:17:51.758Z,17.63
2022-09-23T05:20:19.300Z,17.88
2022-09-23T05:22:46.917Z,18.40
2022-09-23T05:25:15.013Z,19.35
2022-09-23T05:27:42.355Z,18.00
2022-09-23T05:30:10.805Z,13.82
2022-09-23T05:32:39.721Z,14.30
2022-09-23T05:35:07.986Z,14.32
2022-09-23T05:37:35.860Z,15.85
2022-09-23T05:40:03.557Z,18.52
2022-09-23T05:42:30.809Z,16.85
2022-09-23T05:44:58.708Z,18.48
2022-09-23T05:47:26.331Z,17.17
2022-09-23T05:50:00.092Z,18.40
2022-09-23T05:52:28.388Z,19.60
2022-09-23T05:54:55.881Z,26.15
2022-09-23T05:57:23.509Z,22.08
2022-09-23T05:59:50.859Z,24.35
2022-09-23T06:02:18.109Z,18.85
2022-09-23T06:04:45.526Z,16.88
2022-09-23T06:07:12.982Z,15.80
2022-09-23T06:09:40.223Z,13.70
2022-09-23T06:12:07.703Z,14.35
2022-09-23T06:14:35.098Z,16.50
2022-09-23T06:17:02.285Z,17.85
2022-09-23T06:19:29.494Z,17.52
2022-09-23T06:21:56.884Z,16.10
2022-09-23T06:24:30.133Z,20.15
2022-09-23T06:26:59.129Z,19.00
2022-09-23T06:29:26.751Z,18.40
2022-09-23T06:31:54.132Z,17.35
2022-09-23T06:34:23.956Z,17.02
2022-09-23T06:36:51.832Z,17.73
2022-09-23T06:39:19.432Z,18.45
2022-09-23T06:41:46.883Z,16.83
2022-09-23T06:44:15.636Z,15.70
2022-09-23T06:46:43.127Z,15.13
2022-09-23T06:49:13.542Z,19.30
2022-09-23T06:51:41.441Z,14.98
2022-09-23T06:54:08.784Z,17.23
2022-09-23T06:56:39.204Z,15.43
2022-09-23T06:59:09.881Z,16.17
2022-09-23T07:01:37.975Z,20.67
2022-09-23T07:04:07.793Z,20.30
2022-09-23T07:06:35.702Z,19.20
2022-09-23T07:09:04.171Z,22.08
2022-09-23T07:11:32.387Z,19.90
2022-09-23T07:14:00.237Z,25.15
2022-09-23T07:16:27.660Z,22.02
2022-09-23T07:18:55.479Z,20.10
2022-09-23T07:21:22.912Z,18.73
2022-09-23T07:23:51.998Z,22.35
2022-09-23T07:26:20.391Z,18.80
2022-09-23T07:28:48.017Z,18.08
2022-09-23T07:31:26.843Z,15.70
2022-09-23T07:34:01.506Z,18.23
2022-09-23T07:36:33.699Z,16.30
2022-09-23T07:39:03.488Z,12.18
2022-09-23T07:41:32.565Z,11.60
2022-09-23T07:44:01.216Z,16.05
2022-09-23T07:46:31.278Z,9.10
2022-09-23T07:48:59.620Z,8.55
2022-09-23T07:51:34.774Z,12.40
2022-09-23T07:54:05.441Z,9.25
2022-09-23T07:56:33.386Z,11.60
2022-09-23T07:59:03.960Z,8.40
2022-09-23T08:01:33.500Z,8.77
2022-09-23T08:04:04.313Z,7.70
2022-09-23T08:06:31.881Z,7.38
2022-09-23T08:09:00.848Z,6.40
2022-09-23T08:11:28.919Z,7.13
2022-09-23T08:13:57.320Z,8.07
2022-09-23T08:16:24.798Z,8.02
2022-09-23T08:18:52.036Z,6.53
2022-09-23T08:21:21.251Z,4.57
2022-09-23T08:23:49.396Z,5.55
2022-09-23T08:26:21.746Z,5.03
2022-09-23T08:28:53.998Z,5.13
2022-09-23T08:31:22.988Z,5.93
2022-09-23T08:33:57.938Z,3.50
2022-09-23T08:36:26.135Z,3.80
2022-09-23T08:38:53.559Z,4.53
2022-09-23T08:41:43.617Z,7.22
2022-09-23T08:44:19.471Z,3.95
2022-09-23T08:46:54.179Z,3.40
2022-09-23T08:49:39.916Z,3.75
2022-09-23T08:52:15.699Z,3.47
2022-09-23T08:54:44.021Z,3.85
2022-09-23T08:58:23.524Z,3.97
2022-09-23T09:00:54.383Z,5.05
2022-09-23T09:03:26.324Z,4.25
2022-09-23T09:05:55.147Z,3.08
2022-09-23T09:08:26.668Z,6.00
2022-09-23T09:10:55.734Z,3.88
2022-09-23T09:13:31.560Z,2.90
2022-09-23T09:16:11.469Z,3.38
2022-09-23T09:18:55.329Z,9.25
2022-09-23T09:21:28.217Z,11.68
2022-09-23T09:23:58.022Z,6.43
2022-09-23T09:26:32.173Z,4.90
2022-09-23T09:29:39.024Z,2.95
2022-09-23T09:32:16.968Z,22.50
2022-09-23T09:34:54.757Z,10.95
2022-09-23T09:37:35.942Z,2.28
2022-09-23T09:40:04.306Z,2.50
2022-09-23T09:42:40.359Z,1.88
2022-09-23T09:45:24.269Z,1.83
2022-09-23T09:48:10.994Z,4.03
2022-09-23T09:50:51.989Z,2.00
2022-09-23T09:53:20.214Z,5.90
2022-09-23T09:55:59.789Z,5.70
2022-09-23T09:58:43.875Z,5.25
2022-09-23T10:01:25.049Z,2.20
2022-09-23T10:03:59.167Z,9.00
2022-09-23T10:06:35.902Z,2.15
2022-09-23T10:09:13.724Z,2.20
2022-09-23T10:11:42.025Z,3.13
2022-09-23T10:14:19.463Z,1.40
2022-09-23T10:17:01.858Z,2.65
2022-09-23T10:19:29.775Z,1.52
2022-09-23T10:22:01.353Z,1.58
2022-09-23T10:24:32.303Z,1.98
2022-09-23T10:27:07.838Z,1.52
2022-09-23T10:29:40.545Z,1.23
2022-09-23T10:32:26.296Z,3.60
2022-09-23T10:35:02.497Z,3.35
2022-09-23T10:37:35.566Z,1.60
2022-09-23T10:40:32.756Z,2.53
2022-09-23T10:43:19.227Z,2.60
2022-09-23T10:46:08.736Z,2.58
2022-09-23T10:49:02.983Z,1.60
2022-09-23T10:52:00.164Z,2.10
2022-09-23T10:55:12.145Z,2.58
2022-09-23T10:57:45.261Z,1.67
2022-09-23T11:00:27.763Z,1.60
2022-09-23T11:03:13.750Z,3.88
2022-09-23T11:05:56.494Z,3.25
2022-09-23T11:08:51.091Z,2.47
2022-09-23T11:11:34.142Z,2.47
2022-09-23T11:14:24.386Z,1.75
2022-09-23T11:17:23.603Z,1.40
2022-09-23T11:20:00.373Z,1.65
2022-09-23T11:22:37.496Z,2.00
2022-09-23T11:25:14.185Z,2.53
2022-09-23T11:27:59.210Z,1.75
2022-09-23T11:30:51.683Z,3.47
2022-09-23T11:33:25.175Z,14.77
2022-09-23T11:36:09.117Z,18.42
2022-09-23T11:38:45.149Z,14.75
2022-09-23T11:41:25.792Z,11.38
2022-09-23T11:44:01.295Z,8.70
2022-09-23T11:46:43.269Z,3.53
2022-09-23T11:49:21.256Z,4.72
2022-09-23T11:52:03.080Z,4.68
2022-09-23T11:54:43.478Z,3.80
2022-09-23T11:57:24.281Z,3.30
2022-09-23T11:59:59.145Z,2.13
2022-09-23T12:03:04.068Z,2.30
2022-09-23T12:05:47.384Z,2.20
2022-09-23T12:08:29.527Z,2.47
2022-09-23T12:11:08.782Z,2.20
2022-09-23T12:13:36.323Z,4.22
2022-09-23T12:16:10.032Z,21.92
2022-09-23T12:19:05.092Z,5.45
2022-09-23T12:22:04.538Z,16.85
2022-09-23T12:24:56.034Z,8.18
2022-09-23T12:27:38.020Z,8.90
2022-09-23T12:30:27.969Z,10.60
2022-09-23T12:33:22.585Z,7.78
2022-09-23T12:35:50.300Z,4.70
2022-09-23T12:38:25.311Z,3.83
2022-09-23T12:43:50.959Z,4.97
2022-09-23T12:46:27.486Z,2.55
2022-09-23T12:49:00.061Z,3.47
2022-09-23T12:51:33.903Z,3.03
2022-09-23T12:54:05.036Z,2.20
2022-09-23T12:56:39.111Z,2.38
2022-09-23T12:59:21.485Z,4.90
2022-09-23T13:01:49.512Z,6.57
2022-09-23T13:04:53.317Z,3.80
2022-09-23T13:07:27.301Z,6.70
2022-09-23T13:10:08.973Z,9.75
2022-09-23T13:12:39.827Z,5.32
2022-09-23T13:15:18.138Z,4.05
2022-09-23T13:17:45.452Z,2.70
2022-09-23T13:20:21.677Z,4.30
2022-09-23T13:22:52.007Z,2.33
2022-09-23T13:25:27.548Z,1.60
2022-09-23T13:27:57.423Z,0.80
2022-09-23T13:30:26.976Z,1.10
2022-09-23T13:33:05.665Z,1.75
2022-09-23T13:35:37.453Z,1.00
2022-09-23T13:38:12.613Z,0.80
2022-09-23T13:40:42.066Z,1.80
2022-09-23T13:43:20.279Z,1.20
2022-09-23T13:45:48.408Z,1.20
2022-09-23T13:48:16.413Z,3.60
2022-09-23T13:50:48.690Z,2.90
2022-09-23T13:53:34.373Z,1.75
2022-09-23T13:56:15.463Z,2.38
2022-09-23T13:58:43.478Z,1.30
2022-09-23T14:01:23.924Z,1.55
2022-09-23T14:03:51.567Z,1.60
2022-09-23T14:06:19.114Z,1.30
2022-09-23T14:08:49.839Z,2.38
2022-09-23T14:11:38.940Z,1.55
2022-09-23T14:14:07.587Z,37.95
2022-09-23T14:16:40.786Z,9.15
2022-09-23T14:19:17.640Z,3.78
2022-09-23T14:21:49.214Z,1.70
2022-09-23T14:24:16.707Z,1.45
2022-09-23T14:26:50.485Z,1.40
2022-09-23T14:29:25.792Z,2.00
2022-09-23T14:32:02.130Z,3.60
2022-09-23T14:35:04.581Z,2.20
2022-09-23T14:38:00.187Z,3.10
2022-09-23T14:40:32.063Z,2.38
2022-09-23T14:43:25.306Z,1.58
2022-09-23T14:46:01.712Z,1.10
2022-09-23T14:48:35.123Z,2.35
2022-09-23T14:51:06.087Z,2.13
2022-09-23T14:53:42.575Z,4.88
2022-09-23T14:56:17.446Z,8.10
2022-09-23T14:58:53.515Z,7.50
2022-09-23T15:01:36.525Z,8.18
2022-09-23T15:04:14.132Z,8.02
2022-09-23T15:07:15.943Z,8.05
2022-09-23T15:09:45.772Z,14.60
2022-09-23T15:12:20.965Z,14.82
2022-09-23T15:14:56.760Z,24.48
2022-09-23T15:17:24.283Z,25.80
2022-09-23T15:19:58.380Z,21.15
2022-09-23T15:22:26.746Z,21.67
2022-09-23T15:25:08.445Z,30.65
2022-09-23T15:27:36.221Z,24.55
2022-09-23T15:30:17.559Z,20.13
2022-09-23T15:32:46.201Z,21.30
2022-09-23T15:35:19.213Z,21.88
2022-09-23T15:37:49.917Z,19.08
2022-09-23T15:40:29.156Z,17.45
2022-09-23T15:42:59.107Z,9.25
2022-09-23T15:45:36.388Z,14.18
2022-09-23T15:48:11.036Z,30.45
2022-09-23T15:50:39.394Z,54.28
2022-09-23T15:53:07.204Z,56.30
2022-09-23T15:55:34.635Z,53.35
2022-09-23T15:58:02.080Z,45.60
2022-09-23T16:00:29.628Z,44.20
2022-09-23T16:02:58.142Z,43.58
2022-09-23T16:05:33.558Z,41.60
2022-09-23T16:08:04.888Z,36.25
2022-09-23T16:10:34.110Z,77.88
2022-09-23T16:13:03.655Z,77.93
2022-09-23T16:15:32.346Z,69.60
2022-09-23T16:18:00.615Z,44.10
2022-09-23T16:20:30.127Z,51.35
2022-09-23T16:23:00.613Z,80.47
2022-09-23T16:25:31.745Z,528.38
2022-09-23T16:27:59.266Z,381.55
2022-09-23T16:30:28.082Z,310.48
2022-09-23T16:32:55.657Z,300.20
2022-09-23T16:35:26.962Z,285.63
2022-09-23T16:37:55.168Z,178.18
2022-09-23T16:40:24.392Z,181.20
2022-09-23T16:42:54.290Z,181.93
2022-09-23T16:45:23.347Z,165.93
2022-09-23T16:47:52.152Z,147.82
2022-09-23T16:50:25.354Z,93.20
2022-09-23T16:52:58.438Z,123.72
2022-09-23T16:55:27.350Z,121.20
2022-09-23T16:57:55.732Z,104.60
2022-09-23T17:00:42.044Z,325.92
2022-09-23T17:03:30.599Z,249.93
2022-09-23T17:06:00.709Z,172.25
2022-09-23T17:08:30.232Z,120.57
2022-09-23T17:10:59.088Z,107.32
2022-09-23T17:13:30.027Z,50.35
2022-09-23T17:15:57.631Z,31.08
2022-09-23T17:18:26.768Z,30.58
2022-09-23T17:20:58.247Z,30.75
2022-09-23T17:23:27.376Z,35.63
2022-09-23T17:25:57.161Z,44.65
2022-09-23T17:28:24.879Z,58.88
2022-09-23T17:30:57.909Z,77.20
2022-09-23T17:33:29.646Z,73.60
2022-09-23T17:36:00.258Z,71.55
2022-09-23T17:38:29.469Z,71.05
2022-09-23T17:40:59.356Z,64.07
2022-09-23T17:43:30.816Z,89.75
2022-09-23T17:46:05.316Z,88.85
2022-09-23T17:48:41.355Z,61.35
2022-09-23T17:51:11.354Z,57.15
2022-09-23T17:53:40.577Z,63.67
2022-09-23T17:56:17.847Z,63.92
2022-09-23T17:58:47.389Z,77.47
2022-09-23T18:01:17.761Z,75.95
2022-09-23T18:03:45.923Z,82.75
2022-09-23T18:06:16.181Z,76.00
2022-09-23T18:08:45.708Z,82.30
2022-09-23T18:11:14.469Z,93.75
2022-09-23T18:13:42.909Z,120.80
2022-09-23T18:16:11.458Z,80.43
2022-09-23T18:18:38.778Z,64.13
2022-09-23T18:21:10.704Z,53.35
2022-09-23T18:23:40.465Z,40.88
2022-09-23T18:26:19.261Z,48.30
2022-09-23T18:28:48.118Z,76.38
2022-09-23T18:31:16.379Z,124.32
2022-09-23T18:33:43.666Z,125.72
2022-09-23T18:36:10.981Z,138.32
2022-09-23T18:38:38.501Z,138.95
2022-09-23T18:41:07.453Z,138.73
2022-09-23T18:43:41.340Z,127.75
2022-09-23T18:46:20.573Z,77.03
2022-09-23T18:49:06.946Z,64.00
2022-09-23T18:51:38.269Z,50.38
2022-09-23T18:54:07.466Z,41.25
2022-09-23T18:56:42.099Z,42.45
2022-09-23T18:59:14.577Z,52.40
2022-09-23T19:01:43.097Z,47.65
2022-09-23T19:04:15.506Z,298.35
2022-09-23T19:06:42.730Z,296.60
2022-09-23T19:09:12.152Z,145.32
2022-09-23T19:11:40.460Z,128.55
2022-09-23T19:14:11.215Z,260.48
2022-09-23T19:16:40.561Z,215.15
2022-09-23T19:19:08.942Z,114.47
2022-09-23T19:21:36.260Z,80.28
2022-09-23T19:24:08.368Z,80.28
2022-09-23T19:26:39.359Z,50.30
2022-09-23T19:29:09.111Z,53.80
2022-09-23T19:31:40.586Z,52.17
2022-09-23T19:34:16.572Z,62.20
2022-09-23T19:36:50.512Z,57.83
2022-09-23T19:39:26.307Z,42.55
2022-09-23T19:41:56.100Z,46.33
2022-09-23T19:44:25.263Z,50.60
2022-09-23T19:46:56.437Z,56.65
2022-09-23T19:49:25.373Z,68.53
2022-09-23T19:51:55.725Z,69.03
2022-09-23T19:54:26.292Z,60.17
2022-09-23T19:56:54.311Z,51.42
2022-09-23T19:59:21.486Z,56.58
2022-09-23T20:01:49.139Z,45.00
2022-09-23T20:04:17.053Z,44.72
2022-09-23T20:06:48.421Z,53.83
2022-09-23T20:09:15.749Z,47.30
2022-09-23T20:11:45.092Z,48.75
2022-09-23T20:14:13.402Z,39.80
2022-09-23T20:16:42.010Z,39.30
2022-09-23T20:19:10.146Z,49.92
2022-09-23T20:21:37.408Z,49.95
2022-09-23T20:24:06.550Z,59.65
2022-09-23T20:26:52.721Z,60.17
2022-09-23T20:29:20.670Z,70.00
2022-09-23T20:31:48.569Z,105.65
2022-09-23T20:34:15.902Z,96.18
2022-09-23T20:36:43.683Z,88.72
2022-09-23T20:39:11.127Z,79.90
2022-09-23T20:41:41.254Z,112.68
2022-09-23T20:44:12.538Z,85.65
2022-09-23T20:46:47.462Z,75.35
2022-09-23T20:49:17.057Z,77.20
2022-09-23T20:51:44.465Z,43.17
2022-09-23T20:54:12.340Z,22.90
2022-09-23T20:56:39.654Z,25.83
2022-09-23T20:59:07.559Z,13.82
2022-09-23T21:01:36.990Z,15.52
2022-09-23T21:04:06.129Z,20.98
2022-09-23T21:06:37.344Z,23.42
2022-09-23T21:09:06.562Z,47.58
2022-09-23T21:11:34.359Z,49.15
2022-09-23T21:14:02.179Z,52.90
2022-09-23T21:16:30.337Z,36.60
2022-09-23T21:18:59.107Z,18.52
2022-09-23T21:21:27.615Z,15.93
2022-09-23T21:23:56.497Z,22.00
2022-09-23T21:26:31.554Z,18.08
2022-09-23T21:29:00.865Z,19.83
2022-09-23T21:31:31.348Z,129.52
2022-09-23T21:34:05.837Z,61.67
2022-09-23T21:36:37.186Z,51.40
2022-09-23T21:39:06.064Z,35.33
2022-09-23T21:41:36.814Z,33.38
2022-09-23T21:44:05.129Z,27.73
2022-09-23T21:46:35.777Z,26.77
2022-09-23T21:49:04.032Z,37.20
2022-09-23T21:51:36.428Z,45.45
2022-09-23T21:54:04.941Z,29.38
2022-09-23T21:56:35.296Z,15.48
2022-09-23T21:59:03.286Z,15.38
2022-09-23T22:01:36.504Z,12.13
2022-09-23T22:04:10.291Z,11.85
2022-09-23T22:06:39.836Z,14.55
2022-09-23T22:09:11.803Z,14.73
2022-09-23T22:11:58.519Z,18.70
2022-09-23T22:14:26.642Z,20.92
2022-09-23T22:16:59.035Z,24.83
2022-09-23T22:19:35.697Z,28.48
2022-09-23T22:22:13.388Z,34.65
2022-09-23T22:24:47.956Z,39.60
2022-09-23T22:27:18.692Z,41.53
2022-09-23T22:30:05.280Z,38.63
2022-09-23T22:32:43.345Z,49.45
2022-09-23T22:35:20.116Z,51.35
2022-09-23T22:37:48.649Z,53.88
2022-09-23T22:40:16.621Z,59.60
2022-09-23T22:42:44.140Z,47.08
2022-09-23T22:45:12.664Z,32.05
2022-09-23T22:47:44.111Z,26.08
2022-09-23T22:50:13.804Z,26.67
2022-09-23T22:52:41.270Z,21.45
2022-09-23T22:55:08.980Z,16.83
2022-09-23T22:57:36.806Z,20.42
2022-09-23T23:00:08.487Z,21.40
2022-09-23T23:02:36.848Z,30.70
2022-09-23T23:05:04.242Z,53.38
2022-09-23T23:07:35.077Z,54.30
2022-09-23T23:10:03.306Z,48.20
2022-09-23T23:12:30.536Z,40.97
2022-09-23T23:14:57.956Z,43.08
2022-09-23T23:17:25.238Z,45.55
2022-09-23T23:19:53.804Z,43.80
2022-09-23T23:22:21.160Z,46.22
2022-09-23T23:24:48.444Z,60.92
2022-09-23T23:27:15.751Z,65.35
2022-09-23T23:29:43.169Z,63.67
2022-09-23T23:32:10.807Z,55.00
2022-09-23T23:34:38.034Z,44.15
2022-09-23T23:37:05.802Z,42.10
2022-09-23T23:39:34.033Z,26.50
2022-09-23T23:42:01.192Z,19.42
2022-09-23T23:44:31.158Z,17.08
2022-09-23T23:46:58.641Z,17.55
2022-09-23T23:49:25.959Z,15.43
2022-09-23T23:51:53.715Z,16.20
2022-09-23T23:54:20.898Z,18.23
2022-09-23T23:56:47.997Z,22.23
2022-09-23T23:59:15.603Z,23.77
